Meductic, Canada
Current Conditions -  °F | °C
As of 10:53 PM on Friday 28 Nov 2014 (Local Time) from KHUL Reporting Station
Overcast Overcast  
Wind Chill: 15°   Ceiling: 3800
Heat Index: 15°   Visibility: 7mi
Dew Point: 12°   Wind: 0mph
Humidity: 88%   Direction: NA
Pressure: 30.04"   Gusts: NA
Location:  46°N, 67.47°W
Report Text: KHUL 290253Z AUTO 00000KT 7SM BKN038 OVC100 M09/M11 A3004 RMK AO2 SNE02 SLP184 P0000 60000 T10941111 53004
Loading
Personal Weather Stations






























Interactive Weather Map New forecast layout! Learn more

10-Day Weather Forecast

Advertisements
Track Severe Weather on mobile